Almena, Kansas
Current Conditions -  °F | °C
As of 3:53 PM on Wednesday 22 Oct 2014 (Local Time) from KHLC Reporting Station
Thunderstorm Thunderstorm  
Wind Chill: 74°   Ceiling: 4500
Heat Index: 74°   Visibility: 10mi
Dew Point: 56°   Wind: 20mph
Humidity: 53%   Direction: 190°S
Pressure: 29.96"   Gusts: 26mph
Location:  39.89°N, 99.71°W
Report Text: KHLC 222053Z AUTO 19017G23KT 10SM TS BKN045 OVC055 23/13 A2996 RMK AO2 TSB48 SLP129 60000 T02330133 56015
Loading
Personal Weather Stations






























Interactive Weather Map
Tropical Storm Tracking
New forecast layout! Learn more

10-Day Weather Forecast

Advertisements
Track Severe Weather on mobile